Time;durP1;ratioP1;P1;durP2;ratioP2;P2;SDS_P1;SDS_P2;PMS_P1;PMS_P2;Temp;Humidity;BMP_temperature;BMP_pressure;BME280_temperature;BME280_humidity;BME280_pressure;Samples;Min_cycle;Max_cycle;Signal;HPM_P1;HPM_P2
2022/08/28 00:02:10;;;;;;;3.27;1.23;;;18.50;99.90;;;;;;5053129;28;20200;-39
2022/08/28 00:04:36;;;;;;;5.47;1.43;;;18.50;99.90;;;;;;5053001;28;20191;-39
2022/08/28 00:07:02;;;;;;;3.27;1.20;;;18.40;99.90;;;;;;5035202;28;20196;-38
2022/08/28 00:09:28;;;;;;;5.97;1.40;;;18.40;99.90;;;;;;5053384;28;20185;-40
2022/08/28 00:11:53;;;;;;;3.50;1.40;;;18.40;99.90;;;;;;5053113;28;20210;-38
2022/08/28 00:14:20;;;;;;;3.90;1.30;;;18.40;99.90;;;;;;5052891;28;20206;-39
2022/08/28 00:16:49;;;;;;;4.57;1.20;;;18.30;99.90;;;;;;5052805;28;20580;-41
2022/08/28 00:19:17;;;;;;;5.83;1.50;;;18.30;99.90;;;;;;5053215;28;20180;-39
2022/08/28 00:21:45;;;;;;;6.07;1.33;;;18.30;99.90;;;;;;5052902;28;20192;-40
2022/08/28 00:24:11;;;;;;;3.13;1.57;;;18.20;99.90;;;;;;5052611;28;20262;-38
2022/08/28 00:29:21;;;;;;;6.17;1.57;;;18.20;99.90;;;;;;5052782;28;20199;-39
2022/08/28 00:31:47;;;;;;;2.97;1.30;;;18.20;99.90;;;;;;5053527;28;20228;-40
2022/08/28 00:34:13;;;;;;;5.17;1.53;;;18.20;99.90;;;;;;5038428;28;20232;-40
2022/08/28 00:36:40;;;;;;;6.00;1.60;;;18.10;99.90;;;;;;5056428;28;20177;-40
2022/08/28 00:39:07;;;;;;;7.00;1.70;;;18.10;99.90;;;;;;5038744;28;20206;-42
2022/08/28 00:41:34;;;;;;;5.83;1.47;;;18.10;99.90;;;;;;5056882;28;20731;-39
2022/08/28 00:44:22;;;;;;;4.07;1.50;;;18.10;99.90;;;;;;5056369;28;20644;-44
2022/08/28 00:46:50;;;;;;;6.80;1.83;;;18.10;99.90;;;;;;5065901;28;20219;-46
2022/08/28 00:49:21;;;;;;;5.53;1.60;;;18.00;99.90;;;;;;5065805;28;20660;-45
2022/08/28 00:54:45;;;;;;;6.53;1.50;;;18.00;99.90;;;;;;5061370;28;20203;-45
2022/08/28 00:57:17;;;;;;;5.37;1.93;;;18.00;99.90;;;;;;5056256;28;20226;-45
2022/08/28 00:59:43;;;;;;;4.57;1.60;;;18.00;99.90;;;;;;5056251;28;20195;-45
2022/08/28 01:02:08;;;;;;;3.97;1.87;;;18.00;99.90;;;;;;5055974;28;20664;-41
2022/08/28 01:04:35;;;;;;;11.67;2.03;;;18.00;99.90;;;;;;5056177;28;20233;-39
2022/08/28 01:07:08;;;;;;;3.23;1.47;;;17.90;99.90;;;;;;5056092;28;20187;-38
2022/08/28 01:09:38;;;;;;;7.37;2.03;;;17.90;99.90;;;;;;5056021;28;20203;-40
2022/08/28 01:12:10;;;;;;;6.67;1.60;;;17.90;99.90;;;;;;5055674;28;20211;-40
2022/08/28 01:14:39;;;;;;;4.17;1.80;;;17.90;99.90;;;;;;5055730;28;20522;-40
2022/08/28 01:17:07;;;;;;;6.83;2.27;;;17.90;99.90;;;;;;5037592;28;20192;-41
2022/08/28 01:19:37;;;;;;;5.33;2.03;;;17.80;99.90;;;;;;5055654;28;20172;-41
2022/08/28 01:22:17;;;;;;;5.00;2.40;;;17.80;99.90;;;;;;5055577;28;20192;-39
2022/08/28 01:24:45;;;;;;;9.47;2.00;;;17.80;99.90;;;;;;5055741;28;20180;-40
2022/08/28 01:27:10;;;;;;;5.67;2.00;;;17.80;99.90;;;;;;5055469;28;20624;-41
2022/08/28 01:29:36;;;;;;;7.07;2.20;;;17.70;99.90;;;;;;5055399;28;20190;-41
2022/08/28 01:32:04;;;;;;;5.93;2.40;;;17.70;99.90;;;;;;5055259;28;20282;-45
2022/08/28 01:34:30;;;;;;;5.63;2.03;;;17.70;99.90;;;;;;5055405;28;20219;-45
2022/08/28 01:36:56;;;;;;;7.67;2.10;;;17.70;99.90;;;;;;5055428;28;20179;-44
2022/08/28 01:39:23;;;;;;;6.57;2.23;;;17.70;99.90;;;;;;5055396;28;20184;-43
2022/08/28 01:41:51;;;;;;;8.03;2.70;;;17.60;99.90;;;;;;5055143;28;20265;-44
2022/08/28 01:44:22;;;;;;;6.30;2.20;;;17.60;99.90;;;;;;5054653;28;20175;-44
2022/08/28 01:46:49;;;;;;;6.40;2.30;;;17.60;99.90;;;;;;5058066;28;20200;-42
2022/08/28 01:49:15;;;;;;;10.17;2.40;;;17.60;99.90;;;;;;5055009;28;20193;-42
2022/08/28 01:51:41;;;;;;;7.40;2.40;;;17.50;99.90;;;;;;5054924;28;20204;-44
2022/08/28 01:54:08;;;;;;;8.67;2.60;;;17.50;99.90;;;;;;5055771;28;20211;-40
2022/08/28 01:56:34;;;;;;;12.97;2.83;;;17.50;99.90;;;;;;5054855;28;20180;-39
2022/08/28 01:59:02;;;;;;;8.00;2.47;;;17.50;99.90;;;;;;5055064;28;20229;-40
2022/08/28 02:01:28;;;;;;;7.80;2.47;;;17.50;99.90;;;;;;5054839;28;20239;-40
2022/08/28 02:03:54;;;;;;;12.47;2.57;;;17.40;99.90;;;;;;5054719;28;20204;-40
2022/08/28 02:06:20;;;;;;;9.97;2.40;;;17.40;99.90;;;;;;5055041;28;20185;-42
2022/08/28 02:08:48;;;;;;;8.57;2.50;;;17.40;99.90;;;;;;5054639;28;20180;-41
2022/08/28 02:11:15;;;;;;;8.90;2.90;;;17.30;99.90;;;;;;5054737;28;20211;-39
2022/08/28 02:13:41;;;;;;;12.07;3.10;;;17.30;99.90;;;;;;5054638;28;20604;-41
2022/08/28 02:16:09;;;;;;;6.70;2.37;;;17.30;99.90;;;;;;5062920;28;20203;-44
2022/08/28 02:18:36;;;;;;;6.63;2.43;;;17.20;99.90;;;;;;5063908;28;20267;-43
2022/08/28 02:21:03;;;;;;;9.87;3.07;;;17.20;99.90;;;;;;5045180;28;20207;-46
2022/08/28 02:23:28;;;;;;;7.47;2.80;;;17.20;99.90;;;;;;5063656;28;20209;-45
2022/08/28 02:25:54;;;;;;;6.80;2.67;;;17.10;99.90;;;;;;5063715;28;20235;-46
2022/08/28 02:28:20;;;;;;;14.13;3.43;;;17.10;99.90;;;;;;5063957;28;20184;-45
2022/08/28 02:30:45;;;;;;;5.33;2.90;;;17.10;99.90;;;;;;5063159;28;20287;-44
2022/08/28 02:33:11;;;;;;;9.07;3.37;;;17.00;99.90;;;;;;5062096;28;20180;-39
2022/08/28 02:35:39;;;;;;;8.90;3.13;;;17.00;99.90;;;;;;5054383;28;20204;-40
2022/08/28 02:38:04;;;;;;;9.00;3.20;;;16.90;99.90;;;;;;5054223;28;20192;-38
2022/08/28 02:40:30;;;;;;;9.93;2.93;;;16.80;99.90;;;;;;5061599;28;20186;-45
2022/08/28 02:42:56;;;;;;;8.60;2.87;;;16.80;99.90;;;;;;5062833;28;20184;-45
2022/08/28 02:45:21;;;;;;;10.53;3.43;;;16.80;99.90;;;;;;5062519;28;20206;-45
2022/08/28 02:47:51;;;;;;;12.37;3.93;;;16.70;99.90;;;;;;5062639;28;20187;-44
2022/08/28 02:50:18;;;;;;;11.57;3.80;;;16.70;99.90;;;;;;5062759;28;20223;-45
2022/08/28 02:52:45;;;;;;;8.00;3.60;;;16.60;99.90;;;;;;5042187;28;20230;-40
2022/08/28 02:55:13;;;;;;;9.80;3.77;;;16.60;99.90;;;;;;5053249;28;20208;-43
2022/08/28 02:57:39;;;;;;;7.70;3.17;;;16.50;99.90;;;;;;5053610;28;20187;-43
2022/08/28 03:00:10;;;;;;;11.23;4.03;;;16.50;99.90;;;;;;5053998;28;20181;-44
2022/08/28 03:02:36;;;;;;;12.07;3.30;;;16.40;99.90;;;;;;5053856;28;20608;-44
2022/08/28 03:05:03;;;;;;;12.53;3.10;;;16.40;99.90;;;;;;5062089;28;20227;-46
2022/08/28 03:07:29;;;;;;;10.23;3.50;;;16.30;99.90;;;;;;5060982;28;20633;-43
2022/08/28 03:09:55;;;;;;;8.73;3.63;;;16.30;99.90;;;;;;5053480;28;20184;-42
2022/08/28 03:12:23;;;;;;;10.13;3.93;;;16.30;99.90;;;;;;5053628;28;20196;-43
2022/08/28 03:14:50;;;;;;;8.33;3.43;;;16.20;99.90;;;;;;5053685;28;20296;-44
2022/08/28 03:17:16;;;;;;;10.30;3.47;;;16.10;99.90;;;;;;5053554;28;20188;-43
2022/08/28 03:19:41;;;;;;;12.07;4.57;;;16.10;99.90;;;;;;5053399;28;20661;-42
2022/08/28 03:22:07;;;;;;;11.40;3.83;;;16.10;99.90;;;;;;5053422;28;20653;-43
2022/08/28 03:24:34;;;;;;;13.33;3.93;;;16.00;99.90;;;;;;5053255;28;20188;-43
2022/08/28 03:27:00;;;;;;;10.03;3.13;;;16.00;99.90;;;;;;5053410;28;20192;-44
2022/08/28 03:29:26;;;;;;;11.00;3.90;;;15.90;99.90;;;;;;5053786;28;20230;-39
2022/08/28 03:31:52;;;;;;;9.90;3.63;;;15.90;99.90;;;;;;5053423;28;20204;-40
2022/08/28 03:34:18;;;;;;;11.83;3.37;;;15.80;99.90;;;;;;5055090;28;20204;-40
2022/08/28 03:36:43;;;;;;;11.13;3.30;;;15.80;99.90;;;;;;5055105;28;20172;-39
2022/08/28 03:39:09;;;;;;;7.63;3.67;;;15.70;99.90;;;;;;5053389;28;20184;-41
2022/08/28 03:41:35;;;;;;;13.57;3.87;;;15.70;99.90;;;;;;5053457;28;20199;-44
2022/08/28 03:44:02;;;;;;;10.53;3.90;;;15.60;99.90;;;;;;5055454;28;20202;-44
2022/08/28 03:46:31;;;;;;;10.93;3.77;;;15.60;99.90;;;;;;5055265;28;20172;-43
2022/08/28 03:48:58;;;;;;;10.60;3.70;;;15.50;99.90;;;;;;5053098;28;20184;-42
2022/08/28 03:51:30;;;;;;;10.93;3.90;;;15.50;99.90;;;;;;5053845;28;20211;-38
2022/08/28 03:53:57;;;;;;;11.90;3.90;;;15.50;99.90;;;;;;5053309;28;20265;-40
2022/08/28 03:56:25;;;;;;;7.13;3.40;;;15.40;99.90;;;;;;5053205;28;20183;-40
2022/08/28 03:58:54;;;;;;;12.10;3.80;;;15.40;99.90;;;;;;5055568;28;20176;-45
2022/08/28 04:01:20;;;;;;;11.63;3.50;;;15.40;99.90;;;;;;5059322;28;20212;-45
2022/08/28 04:03:46;;;;;;;11.43;4.00;;;15.40;99.90;;;;;;5054870;28;20181;-39
2022/08/28 04:06:12;;;;;;;10.90;3.57;;;15.30;99.90;;;;;;5054698;28;20584;-40
2022/08/28 04:08:37;;;;;;;8.23;3.73;;;15.30;99.90;;;;;;5039054;28;20177;-39
2022/08/28 04:11:03;;;;;;;11.53;3.83;;;15.20;99.90;;;;;;5056950;28;20204;-39
2022/08/28 04:13:30;;;;;;;16.07;3.60;;;15.20;99.90;;;;;;5056768;28;20184;-41
2022/08/28 04:15:58;;;;;;;9.47;3.63;;;15.20;99.90;;;;;;5061650;28;20605;-45
2022/08/28 04:18:25;;;;;;;8.63;3.47;;;15.20;99.90;;;;;;5065183;28;20188;-44
2022/08/28 04:21:06;;;;;;;9.33;3.97;;;15.20;99.90;;;;;;5065023;28;20200;-44
2022/08/28 04:23:33;;;;;;;9.33;3.70;;;15.20;99.90;;;;;;5064399;28;20176;-45
2022/08/28 04:25:59;;;;;;;10.00;3.60;;;15.10;99.90;;;;;;5064470;28;20187;-45
2022/08/28 04:28:25;;;;;;;9.27;3.43;;;15.10;99.90;;;;;;5063798;28;20577;-44
2022/08/28 04:30:53;;;;;;;11.73;3.70;;;15.10;99.90;;;;;;5063123;28;20615;-45
2022/08/28 04:33:20;;;;;;;7.67;3.50;;;15.00;99.90;;;;;;5064061;28;20251;-44
2022/08/28 04:35:45;;;;;;;11.37;3.77;;;15.00;99.90;;;;;;5064117;28;20204;-44
2022/08/28 04:38:11;;;;;;;8.40;3.07;;;15.00;99.90;;;;;;5063632;28;20180;-44
2022/08/28 04:40:40;;;;;;;10.40;4.67;;;15.00;99.90;;;;;;5064454;28;20640;-44
2022/08/28 04:43:06;;;;;;;10.60;3.50;;;15.00;99.90;;;;;;5064446;28;20176;-43
2022/08/28 04:45:37;;;;;;;13.20;3.40;;;14.90;99.90;;;;;;5064051;28;20747;-45
2022/08/28 04:48:04;;;;;;;14.83;4.13;;;14.90;99.90;;;;;;5063914;28;20160;-45
2022/08/28 04:50:29;;;;;;;11.33;4.10;;;14.90;99.90;;;;;;5064199;28;20184;-44
2022/08/28 04:52:55;;;;;;;8.83;3.50;;;14.90;99.90;;;;;;5064244;28;20214;-43
2022/08/28 04:55:21;;;;;;;12.60;3.50;;;14.90;99.90;;;;;;5063762;28;20204;-44
2022/08/28 04:57:47;;;;;;;10.63;3.87;;;14.90;99.90;;;;;;5063500;28;20177;-45
2022/08/28 05:00:13;;;;;;;9.80;3.20;;;14.80;99.90;;;;;;5064662;28;20176;-44
2022/08/28 05:02:38;;;;;;;10.17;3.80;;;14.80;99.90;;;;;;5058629;28;20202;-39
2022/08/28 05:05:04;;;;;;;12.50;4.10;;;14.80;99.90;;;;;;5056088;28;20177;-40
2022/08/28 05:07:30;;;;;;;12.37;3.97;;;14.80;99.90;;;;;;5055938;28;20172;-40
2022/08/28 05:09:56;;;;;;;10.57;3.77;;;14.80;99.90;;;;;;5055900;28;20208;-41
2022/08/28 05:12:22;;;;;;;16.90;4.57;;;14.80;99.90;;;;;;5055710;28;20196;-45
2022/08/28 05:14:48;;;;;;;12.03;4.53;;;14.80;99.90;;;;;;5056138;28;20621;-45
2022/08/28 05:17:14;;;;;;;10.43;4.10;;;14.80;99.90;;;;;;5055364;28;20298;-40
2022/08/28 05:19:40;;;;;;;10.27;4.33;;;14.80;99.90;;;;;;5055561;28;20275;-41
2022/08/28 05:22:08;;;;;;;11.03;3.77;;;14.80;99.90;;;;;;5055411;28;20201;-41
2022/08/28 05:24:35;;;;;;;9.10;3.60;;;14.80;99.90;;;;;;5037611;28;20223;-41
2022/08/28 05:27:02;;;;;;;15.30;4.40;;;14.80;99.90;;;;;;5037738;28;20242;-42
2022/08/28 05:29:27;;;;;;;11.57;3.77;;;14.90;99.90;;;;;;5055755;28;20188;-41
2022/08/28 05:31:53;;;;;;;12.40;4.50;;;14.90;99.90;;;;;;5037436;28;20208;-41
2022/08/28 05:34:19;;;;;;;9.60;3.63;;;14.90;99.90;;;;;;5055357;28;20212;-42
2022/08/28 05:36:45;;;;;;;8.07;3.97;;;15.00;99.90;;;;;;5055488;28;20176;-39
2022/08/28 05:39:11;;;;;;;11.07;4.13;;;14.90;99.90;;;;;;5055247;28;20333;-41
2022/08/28 05:41:39;;;;;;;13.30;3.60;;;15.00;99.90;;;;;;5055163;28;20205;-38
2022/08/28 05:44:08;;;;;;;9.60;4.20;;;15.00;99.90;;;;;;5055125;28;20172;-39
2022/08/28 05:46:36;;;;;;;8.43;3.33;;;15.10;99.90;;;;;;5055161;28;20633;-39
2022/08/28 05:49:02;;;;;;;12.60;4.20;;;15.10;99.90;;;;;;5054960;28;20180;-40
2022/08/28 05:51:28;;;;;;;9.80;3.60;;;15.10;99.90;;;;;;5055147;28;20567;-38
2022/08/28 05:53:55;;;;;;;7.17;3.80;;;15.20;99.90;;;;;;5054851;28;20204;-40
2022/08/28 05:56:29;;;;;;;12.77;3.60;;;15.20;99.90;;;;;;5054836;28;20659;-40
2022/08/28 05:58:56;;;;;;;10.53;4.33;;;15.20;99.90;;;;;;5055152;28;20207;-40
2022/08/28 06:01:28;;;;;;;11.30;3.67;;;15.20;99.90;;;;;;5036961;28;20202;-39
2022/08/28 06:04:06;;;;;;;15.23;3.97;;;15.30;99.90;;;;;;5055171;28;20169;-39
2022/08/28 06:06:33;;;;;;;12.93;4.53;;;15.30;99.90;;;;;;5054682;28;20172;-39
2022/08/28 06:09:23;;;;;;;16.83;3.70;;;15.40;99.90;;;;;;5054654;28;20275;-40
2022/08/28 06:11:49;;;;;;;11.97;4.27;;;15.40;99.90;;;;;;5054636;28;20208;-41
2022/08/28 06:14:18;;;;;;;11.63;3.97;;;15.50;99.90;;;;;;5036595;28;20207;-39
2022/08/28 06:16:51;;;;;;;10.00;4.03;;;15.50;99.90;;;;;;5054388;28;20196;-37
2022/08/28 06:19:17;;;;;;;14.20;4.23;;;15.50;99.90;;;;;;5054764;28;20171;-40
2022/08/28 06:21:43;;;;;;;11.90;3.93;;;15.60;99.90;;;;;;5054317;28;20204;-40
2022/08/28 06:24:11;;;;;;;12.33;3.50;;;15.60;99.90;;;;;;5054577;28;20287;-39
2022/08/28 06:26:36;;;;;;;11.03;3.47;;;15.70;99.90;;;;;;5054313;28;20176;-38
2022/08/28 06:29:04;;;;;;;18.70;3.43;;;15.70;99.90;;;;;;5054263;28;20180;-40
2022/08/28 06:31:30;;;;;;;7.30;3.13;;;15.80;99.90;;;;;;5054087;28;20682;-39
2022/08/28 06:33:57;;;;;;;16.80;3.67;;;15.90;99.90;;;;;;5054705;28;20286;-42
2022/08/28 06:36:26;;;;;;;12.23;3.57;;;15.90;99.90;;;;;;5054247;28;20218;-40
2022/08/28 06:38:52;;;;;;;16.37;3.80;;;16.00;99.90;;;;;;5054126;28;20221;-40
2022/08/28 06:41:18;;;;;;;8.13;3.13;;;16.00;99.90;;;;;;5054048;28;20279;-41
2022/08/28 06:43:44;;;;;;;8.97;3.80;;;16.00;99.90;;;;;;5054443;28;20206;-40
2022/08/28 06:46:09;;;;;;;9.00;3.43;;;16.10;99.90;;;;;;5054021;28;20184;-40
2022/08/28 06:48:35;;;;;;;12.07;3.23;;;16.10;99.90;;;;;;5054143;28;20176;-39
2022/08/28 06:51:05;;;;;;;5.70;2.93;;;16.10;99.90;;;;;;5053958;28;20200;-38
2022/08/28 06:53:30;;;;;;;8.33;3.27;;;16.20;99.90;;;;;;5054471;28;20182;-38
2022/08/28 06:56:10;;;;;;;7.97;3.00;;;16.20;99.90;;;;;;5054100;28;20266;-39
2022/08/28 06:58:39;;;;;;;9.40;2.50;;;16.30;99.90;;;;;;5054137;28;20535;-39
2022/08/28 07:01:17;;;;;;;8.97;2.90;;;16.40;99.90;;;;;;5054468;28;20290;-39
2022/08/28 07:03:44;;;;;;;11.13;3.40;;;16.40;99.90;;;;;;5055156;28;20624;-38
2022/08/28 07:06:12;;;;;;;10.13;2.70;;;16.40;99.90;;;;;;5053690;28;20671;-38
2022/08/28 07:08:38;;;;;;;9.83;3.10;;;16.50;99.90;;;;;;5053565;28;20180;-40
2022/08/28 07:11:15;;;;;;;11.40;3.47;;;16.50;99.90;;;;;;5053689;28;20698;-40
2022/08/28 07:13:42;;;;;;;13.67;3.33;;;16.60;99.90;;;;;;5053711;28;20253;-39
2022/08/28 07:16:08;;;;;;;9.23;3.27;;;16.70;99.90;;;;;;5036580;28;20188;-39
2022/08/28 07:18:35;;;;;;;8.80;3.30;;;16.70;99.90;;;;;;5053755;28;20559;-40
2022/08/28 07:21:01;;;;;;;9.70;3.10;;;16.80;99.90;;;;;;5053479;28;20220;-39
2022/08/28 07:23:29;;;;;;;9.70;3.07;;;16.90;99.90;;;;;;5053616;28;20206;-39
2022/08/28 07:25:55;;;;;;;9.23;3.13;;;16.80;99.90;;;;;;5053379;28;20180;-39
2022/08/28 07:28:21;;;;;;;7.43;2.73;;;16.90;99.90;;;;;;5053703;28;20182;-40
2022/08/28 07:30:58;;;;;;;8.70;2.70;;;16.90;99.90;;;;;;5053512;28;20611;-40
2022/08/28 07:33:25;;;;;;;11.90;3.30;;;17.00;99.90;;;;;;5053671;28;20168;-39
2022/08/28 07:35:51;;;;;;;12.43;2.57;;;17.00;99.90;;;;;;5053256;28;20196;-39
2022/08/28 07:38:16;;;;;;;8.27;2.40;;;17.00;99.90;;;;;;5053405;28;20225;-39
2022/08/28 07:40:42;;;;;;;7.60;2.60;;;17.10;99.90;;;;;;5055182;28;20191;-40
2022/08/28 07:46:00;;;;;;;6.93;2.10;;;17.20;99.90;;;;;;5060042;28;20260;-40
2022/08/28 07:48:26;;;;;;;8.90;2.43;;;17.20;99.90;;;;;;5060761;28;20179;-41
2022/08/28 07:50:51;;;;;;;9.43;2.40;;;17.30;99.90;;;;;;5059910;28;20613;-40
2022/08/28 07:53:17;;;;;;;6.17;2.47;;;17.30;99.90;;;;;;5059990;28;20180;-45
2022/08/28 07:55:42;;;;;;;10.27;2.47;;;17.30;99.90;;;;;;5060640;28;20204;-45
2022/08/28 07:58:08;;;;;;;10.97;3.20;;;17.30;99.90;;;;;;5060130;28;20266;-42
2022/08/28 08:00:33;;;;;;;8.60;3.00;;;17.40;99.90;;;;;;5060192;28;20180;-44
2022/08/28 08:02:59;;;;;;;8.73;2.43;;;17.50;99.90;;;;;;5060263;28;20184;-44
2022/08/28 08:05:24;;;;;;;11.90;3.43;;;17.50;99.90;;;;;;5060631;28;20192;-43
2022/08/28 08:07:51;;;;;;;7.37;2.37;;;17.50;99.90;;;;;;5062766;28;20179;-43
2022/08/28 08:10:17;;;;;;;6.60;2.40;;;17.60;99.90;;;;;;5064139;28;20261;-43
2022/08/28 08:12:43;;;;;;;7.50;2.20;;;17.60;99.90;;;;;;5064425;28;20617;-44
2022/08/28 08:15:10;;;;;;;7.17;2.70;;;17.60;99.90;;;;;;5059949;28;20261;-45
2022/08/28 08:17:37;;;;;;;7.33;2.70;;;17.70;99.90;;;;;;5060165;28;20169;-46
2022/08/28 08:20:04;;;;;;;14.07;3.03;;;17.80;99.90;;;;;;5060156;28;20246;-44
2022/08/28 08:22:30;;;;;;;11.60;2.50;;;17.80;99.90;;;;;;5059724;28;20204;-43
2022/08/28 08:24:56;;;;;;;9.43;3.23;;;17.80;99.90;;;;;;5059892;28;20214;-44
2022/08/28 08:27:22;;;;;;;10.53;2.80;;;17.80;99.90;;;;;;5059804;28;20188;-44
2022/08/28 08:29:47;;;;;;;7.67;2.87;;;17.70;99.90;;;;;;5059749;28;20529;-44
2022/08/28 08:32:14;;;;;;;5.40;2.87;;;17.80;99.90;;;;;;5059679;28;20200;-44
2022/08/28 08:34:48;;;;;;;10.33;2.97;;;17.80;99.90;;;;;;5059309;28;20707;-43
2022/08/28 08:37:14;;;;;;;10.03;2.77;;;17.80;99.90;;;;;;5059450;28;20299;-43
2022/08/28 08:39:42;;;;;;;10.53;3.00;;;17.80;99.90;;;;;;5059448;28;20184;-42
2022/08/28 08:42:28;;;;;;;12.57;3.23;;;17.70;99.90;;;;;;5059622;28;20196;-43
2022/08/28 08:44:56;;;;;;;11.07;3.40;;;17.80;99.90;;;;;;5041773;28;20182;-44
2022/08/28 08:47:41;;;;;;;12.13;3.80;;;17.90;99.90;;;;;;5059383;28;20184;-42
2022/08/28 08:50:26;;;;;;;12.83;3.33;;;18.00;99.90;;;;;;5059318;28;20181;-42
2022/08/28 08:53:08;;;;;;;7.87;3.43;;;18.20;99.90;;;;;;5056152;28;20172;-42
2022/08/28 08:55:46;;;;;;;10.10;3.07;;;18.20;99.90;;;;;;5056109;28;20265;-44
2022/08/28 08:58:32;;;;;;;7.63;3.13;;;18.20;99.90;;;;;;5056327;28;20176;-44
2022/08/28 09:01:08;;;;;;;13.30;3.40;;;18.30;99.90;;;;;;5056072;28;20664;-43
2022/08/28 09:03:46;;;;;;;7.00;2.40;;;18.40;99.90;;;;;;5056756;28;20513;-42
2022/08/28 09:06:38;;;;;;;12.07;3.23;;;18.60;99.90;;;;;;5055981;28;20208;-43
2022/08/28 09:09:15;;;;;;;7.70;2.80;;;18.70;99.90;;;;;;5055266;28;20214;-43
2022/08/28 09:11:49;;;;;;;8.17;2.70;;;18.90;99.90;;;;;;5056013;28;20566;-44
2022/08/28 09:14:23;;;;;;;8.50;2.93;;;19.00;99.90;;;;;;5055972;28;20226;-42
2022/08/28 09:16:51;;;;;;;9.73;3.07;;;19.00;99.90;;;;;;5055682;28;20196;-43
2022/08/28 09:19:20;;;;;;;5.23;2.37;;;19.10;99.90;;;;;;5056297;28;20200;-43
2022/08/28 09:21:47;;;;;;;8.77;3.00;;;19.20;99.90;;;;;;5055779;28;20250;-43
2022/08/28 09:24:28;;;;;;;10.13;2.47;;;19.30;99.90;;;;;;5055800;28;20279;-43
2022/08/28 09:26:58;;;;;;;9.93;2.40;;;19.30;99.90;;;;;;5055612;28;20164;-44
2022/08/28 09:29:37;;;;;;;8.40;2.47;;;19.30;99.90;;;;;;5055747;28;20184;-44
2022/08/28 09:32:31;;;;;;;7.17;2.00;;;19.40;99.90;;;;;;5055568;28;20212;-43
2022/08/28 09:35:05;;;;;;;8.67;2.57;;;19.50;99.90;;;;;;5055355;28;20841;-44
2022/08/28 09:37:31;;;;;;;8.03;2.70;;;19.50;99.90;;;;;;5055466;28;20165;-41
2022/08/28 09:43:25;;;;;;;8.37;2.60;;;19.60;99.90;;;;;;5056044;28;20222;-43
2022/08/28 09:43:28;;;;;;;9.27;3.27;;;19.60;99.90;;;;;;5055052;28;20185;-44
2022/08/28 09:46:23;;;;;;;7.70;2.90;;;19.60;99.90;;;;;;5055026;28;20172;-43
2022/08/28 09:48:51;;;;;;;9.97;2.73;;;19.70;99.90;;;;;;5055091;28;20183;-44
2022/08/28 09:51:19;;;;;;;8.20;2.70;;;19.80;99.90;;;;;;5055362;28;20664;-44
2022/08/28 09:53:51;;;;;;;10.30;2.60;;;19.80;99.90;;;;;;5055199;28;20314;-43
2022/08/28 09:56:38;;;;;;;7.13;2.27;;;19.80;99.90;;;;;;5054968;28;20187;-41
2022/08/28 09:59:12;;;;;;;8.13;2.10;;;19.90;99.90;;;;;;5054949;28;20544;-39
2022/08/28 10:01:40;;;;;;;5.67;2.07;;;19.90;99.90;;;;;;5055009;28;20211;-40
2022/08/28 10:04:30;;;;;;;6.83;2.63;;;20.00;99.90;;;;;;5054475;28;20180;-41
2022/08/28 10:07:02;;;;;;;6.73;2.60;;;20.00;99.90;;;;;;5055292;28;20168;-41
2022/08/28 10:09:48;;;;;;;7.60;2.33;;;20.10;99.90;;;;;;5036966;28;20544;-40
2022/08/28 10:12:35;;;;;;;11.10;2.80;;;20.20;99.90;;;;;;5040634;28;20223;-38
2022/08/28 10:15:24;;;;;;;6.43;2.50;;;20.40;99.90;;;;;;5054658;28;20235;-41
2022/08/28 10:18:28;;;;;;;6.33;2.10;;;20.40;99.90;;;;;;5036770;28;20180;-39
2022/08/28 10:21:20;;;;;;;8.77;3.03;;;20.50;99.90;;;;;;5054871;28;20252;-39
2022/08/28 10:24:12;;;;;;;6.67;2.17;;;20.60;99.90;;;;;;5054823;28;20176;-40
2022/08/28 10:26:52;;;;;;;7.13;2.60;;;20.70;99.90;;;;;;5055760;28;20177;-40
2022/08/28 10:29:41;;;;;;;6.47;2.47;;;20.80;99.90;;;;;;5055684;28;20183;-39
2022/08/28 10:32:28;;;;;;;5.73;2.40;;;20.90;99.90;;;;;;5055642;28;20223;-40
2022/08/28 10:34:53;;;;;;;7.00;3.20;;;21.00;99.90;;;;;;5055924;28;20200;-40
2022/08/28 10:37:40;;;;;;;5.87;2.83;;;21.00;99.90;;;;;;5055339;28;20591;-40
2022/08/28 10:40:27;;;;;;;8.80;2.43;;;21.00;99.90;;;;;;5014024;28;20184;-40
2022/08/28 10:42:58;;;;;;;4.47;2.00;;;21.00;99.90;;;;;;5055774;28;20171;-40
2022/08/28 10:45:25;;;;;;;11.00;2.90;;;21.00;99.90;;;;;;5056049;28;20668;-40
2022/08/28 10:47:59;;;;;;;5.13;2.50;;;21.00;99.90;;;;;;5054580;28;20187;-40
2022/08/28 10:50:28;;;;;;;6.93;2.87;;;21.00;99.90;;;;;;5054283;28;20180;-38
2022/08/28 10:53:06;;;;;;;7.90;2.53;;;21.10;99.90;;;;;;5054223;28;20726;-39
2022/08/28 10:55:42;;;;;;;6.63;2.60;;;21.10;99.90;;;;;;5035906;28;20214;-41
2022/08/28 10:58:10;;;;;;;4.47;1.93;;;21.20;99.90;;;;;;5054359;28;20171;-38
2022/08/28 11:00:38;;;;;;;5.47;2.20;;;21.30;99.90;;;;;;5053911;28;20195;-40
2022/08/28 11:03:09;;;;;;;5.17;2.20;;;21.40;99.90;;;;;;5036378;28;20521;-40
2022/08/28 11:06:00;;;;;;;7.70;2.87;;;21.40;99.90;;;;;;5054051;28;20195;-40
2022/08/28 11:08:30;;;;;;;8.63;2.20;;;21.50;99.90;;;;;;5053788;28;20165;-41
2022/08/28 11:10:59;;;;;;;11.33;2.47;;;21.50;99.90;;;;;;5053615;28;20199;-40
2022/08/28 11:13:58;;;;;;;7.63;1.77;;;21.60;99.90;;;;;;5053891;28;20188;-40
2022/08/28 11:16:45;;;;;;;8.57;2.23;;;21.70;99.90;;;;;;5052782;28;20211;-40
2022/08/28 11:19:14;;;;;;;10.27;2.40;;;21.70;99.90;;;;;;5054335;28;20187;-40
2022/08/28 11:22:03;;;;;;;7.13;2.17;;;21.80;99.90;;;;;;5053454;28;20196;-40
2022/08/28 11:24:37;;;;;;;6.97;2.80;;;21.90;99.90;;;;;;5053741;28;20164;-39
2022/08/28 11:27:15;;;;;;;7.20;2.40;;;21.90;99.90;;;;;;5053660;28;20164;-40
2022/08/28 11:30:03;;;;;;;6.47;2.10;;;22.10;99.90;;;;;;5053575;28;20168;-40
2022/08/28 11:32:34;;;;;;;8.50;3.13;;;22.10;99.90;;;;;;5053258;28;20204;-39
2022/08/28 11:35:28;;;;;;;5.70;2.20;;;22.10;99.90;;;;;;5053634;28;20207;-40
2022/08/28 11:37:55;;;;;;;4.90;2.07;;;22.10;99.90;;;;;;5053424;28;20180;-41
2022/08/28 11:40:30;;;;;;;5.87;1.90;;;22.10;99.90;;;;;;5053622;28;20180;-39
2022/08/28 11:43:14;;;;;;;10.10;2.47;;;22.00;99.90;;;;;;5035462;28;20172;-39
2022/08/28 11:45:45;;;;;;;6.00;1.60;;;21.90;99.90;;;;;;5053536;28;20186;-40
2022/08/28 11:48:33;;;;;;;6.00;1.90;;;22.00;99.90;;;;;;5053281;28;20183;-40
2022/08/28 11:51:15;;;;;;;3.87;1.50;;;22.00;99.90;;;;;;5053192;28;20208;-38
2022/08/28 11:54:37;;;;;;;6.77;1.97;;;22.10;99.90;;;;;;5053239;28;20239;-39
2022/08/28 11:57:27;;;;;;;6.83;2.50;;;22.30;99.90;;;;;;4972527;28;20175;-39
2022/08/28 12:00:07;;;;;;;4.40;2.10;;;22.40;99.90;;;;;;5053708;28;20630;-41
2022/08/28 12:02:38;;;;;;;4.77;2.10;;;22.50;99.90;;;;;;5053233;28;20219;-41
2022/08/28 12:05:27;;;;;;;4.80;2.23;;;22.50;99.90;;;;;;5053130;28;20172;-40
2022/08/28 12:07:52;;;;;;;7.90;2.10;;;22.60;99.90;;;;;;5038780;28;20212;-41
2022/08/28 12:10:21;;;;;;;5.47;1.90;;;22.60;99.90;;;;;;5053251;28;20560;-40
2022/08/28 12:12:46;;;;;;;7.97;1.93;;;22.60;99.90;;;;;;5034980;28;20206;-41
2022/08/28 12:15:28;;;;;;;6.53;2.00;;;22.60;99.90;;;;;;5034827;28;20212;-40
2022/08/28 12:18:09;;;;;;;7.03;1.97;;;22.50;99.90;;;;;;5053143;28;20180;-39
2022/08/28 12:20:49;;;;;;;6.90;2.43;;;22.40;99.90;;;;;;5052928;28;20168;-40
2022/08/28 12:23:34;;;;;;;5.67;2.20;;;22.50;99.90;;;;;;5053574;28;20269;-40
2022/08/28 12:26:34;;;;;;;2.23;1.40;;;22.60;99.90;;;;;;5053597;28;20184;-40
2022/08/28 12:29:22;;;;;;;6.73;1.90;;;22.60;99.90;;;;;;5054044;28;20652;-39
2022/08/28 12:32:17;;;;;;;6.13;1.70;;;22.80;99.90;;;;;;5056876;28;20216;-40
2022/08/28 12:34:53;;;;;;;6.13;1.87;;;22.80;99.90;;;;;;5040187;28;20216;-41
2022/08/28 12:37:28;;;;;;;6.27;2.10;;;22.90;99.90;;;;;;5056836;28;20164;-39
2022/08/28 12:39:56;;;;;;;3.87;1.50;;;22.90;99.90;;;;;;5056432;28;20176;-42
2022/08/28 12:42:30;;;;;;;4.30;1.63;;;22.90;99.90;;;;;;5056310;28;20207;-38
2022/08/28 12:45:06;;;;;;;3.07;1.43;;;23.00;99.90;;;;;;5038455;28;20184;-39
2022/08/28 12:47:33;;;;;;;3.53;1.67;;;23.00;99.90;;;;;;5056634;28;20211;-41
2022/08/28 12:50:24;;;;;;;2.63;1.50;;;23.10;99.90;;;;;;5056309;28;20172;-39
2022/08/28 12:52:52;;;;;;;3.40;1.67;;;23.10;99.90;;;;;;5056537;28;20204;-41
2022/08/28 12:55:19;;;;;;;6.87;1.60;;;23.00;99.90;;;;;;5056040;28;20695;-39
2022/08/28 12:57:46;;;;;;;2.50;1.30;;;23.10;99.90;;;;;;5056981;28;20559;-38
2022/08/28 13:00:20;;;;;;;6.67;1.83;;;23.30;99.90;;;;;;5056066;28;20175;-39
2022/08/28 13:02:46;;;;;;;3.60;1.80;;;23.40;99.90;;;;;;5055977;28;20196;-39
2022/08/28 13:05:25;;;;;;;4.80;2.03;;;23.40;99.90;;;;;;5056188;28;20184;-40
2022/08/28 13:07:54;;;;;;;7.80;1.93;;;23.50;99.90;;;;;;5037971;28;20203;-45
2022/08/28 13:10:28;;;;;;;5.20;1.77;;;23.30;99.90;;;;;;5056052;28;20599;-44
2022/08/28 13:12:59;;;;;;;3.57;1.63;;;23.30;99.90;;;;;;5056087;28;20180;-44